sensor_id;sensor_type;location;lat;lon;timestamp;pressure;altitude;pressure_sealevel;temperature;humidity
7264;BME280;3673;52.480;13.348;2023-04-06T00:00:33;101688.13;;;10.39;42.68
7264;BME280;3673;52.480;13.348;2023-04-06T00:03:00;101674.84;;;10.25;42.48
7264;BME280;3673;52.480;13.348;2023-04-06T00:05:28;101679.94;;;10.18;42.79
7264;BME280;3673;52.480;13.348;2023-04-06T00:07:57;101682.69;;;10.25;43.13
7264;BME280;3673;52.480;13.348;2023-04-06T00:10:24;101675.38;;;10.06;42.92
7264;BME280;3673;52.480;13.348;2023-04-06T00:12:52;101671.84;;;10.03;43.20
7264;BME280;3673;52.480;13.348;2023-04-06T00:15:19;101680.38;;;9.93;43.39
7264;BME280;3673;52.480;13.348;2023-04-06T00:17:46;101674.34;;;9.97;43.34
7264;BME280;3673;52.480;13.348;2023-04-06T00:20:12;101667.50;;;10.05;43.25
7264;BME280;3673;52.480;13.348;2023-04-06T00:22:41;101670.06;;;10.00;43.42
7264;BME280;3673;52.480;13.348;2023-04-06T00:25:08;101667.53;;;10.06;43.13
7264;BME280;3673;52.480;13.348;2023-04-06T00:27:36;101666.63;;;10.04;43.07
7264;BME280;3673;52.480;13.348;2023-04-06T00:30:04;101670.06;;;10.02;43.72
7264;BME280;3673;52.480;13.348;2023-04-06T00:32:31;101670.13;;;10.05;43.28
7264;BME280;3673;52.480;13.348;2023-04-06T00:34:58;101662.28;;;10.05;43.12
7264;BME280;3673;52.480;13.348;2023-04-06T00:37:25;101669.22;;;10.03;43.34
7264;BME280;3673;52.480;13.348;2023-04-06T00:39:54;101664.88;;;10.03;43.13
7264;BME280;3673;52.480;13.348;2023-04-06T00:42:21;101668.28;;;9.99;43.45
7264;BME280;3673;52.480;13.348;2023-04-06T00:44:52;101659.59;;;10.00;43.50
7264;BME280;3673;52.480;13.348;2023-04-06T00:47:19;101650.09;;;10.05;43.10
7264;BME280;3673;52.480;13.348;2023-04-06T00:49:46;101652.56;;;9.98;43.30
7264;BME280;3673;52.480;13.348;2023-04-06T00:52:13;101657.59;;;9.86;43.09
7264;BME280;3673;52.480;13.348;2023-04-06T00:54:40;101661.03;;;9.81;43.66
7264;BME280;3673;52.480;13.348;2023-04-06T00:57:08;101664.56;;;9.83;43.83
7264;BME280;3673;52.480;13.348;2023-04-06T00:59:35;101654.22;;;9.91;43.30
7264;BME280;3673;52.480;13.348;2023-04-06T01:02:03;101650.75;;;9.91;43.66
7264;BME280;3673;52.480;13.348;2023-04-06T01:04:30;101655.13;;;9.93;43.50
7264;BME280;3673;52.480;13.348;2023-04-06T01:06:57;101658.63;;;9.94;43.37
7264;BME280;3673;52.480;13.348;2023-04-06T01:09:24;101662.84;;;9.86;43.72
7264;BME280;3673;52.480;13.348;2023-04-06T01:11:51;101655.00;;;9.86;43.84
7264;BME280;3673;52.480;13.348;2023-04-06T01:14:20;101661.59;;;9.64;43.57
7264;BME280;3673;52.480;13.348;2023-04-06T01:16:46;101653.47;;;9.49;44.42
7264;BME280;3673;52.480;13.348;2023-04-06T01:19:13;101651.91;;;9.58;44.41
7264;BME280;3673;52.480;13.348;2023-04-06T01:21:41;101659.00;;;9.65;44.31
7264;BME280;3673;52.480;13.348;2023-04-06T01:24:10;101656.88;;;9.45;44.57
7264;BME280;3673;52.480;13.348;2023-04-06T01:26:38;101662.00;;;9.39;44.44
7264;BME280;3673;52.480;13.348;2023-04-06T01:29:05;101654.56;;;9.60;44.17
7264;BME280;3673;52.480;13.348;2023-04-06T01:31:31;101661.91;;;9.34;44.91
7264;BME280;3673;52.480;13.348;2023-04-06T01:33:58;101654.09;;;9.36;45.17
7264;BME280;3673;52.480;13.348;2023-04-06T01:36:25;101659.28;;;9.34;45.02
7264;BME280;3673;52.480;13.348;2023-04-06T01:38:52;101658.59;;;9.43;44.76
7264;BME280;3673;52.480;13.348;2023-04-06T01:41:20;101657.56;;;9.33;44.93
7264;BME280;3673;52.480;13.348;2023-04-06T01:43:48;101654.78;;;9.25;44.87
7264;BME280;3673;52.480;13.348;2023-04-06T01:46:15;101649.63;;;9.28;44.97
7264;BME280;3673;52.480;13.348;2023-04-06T01:48:42;101646.38;;;9.40;44.89
7264;BME280;3673;52.480;13.348;2023-04-06T01:51:09;101656.81;;;9.42;44.93
7264;BME280;3673;52.480;13.348;2023-04-06T01:53:36;101644.53;;;9.36;44.57
7264;BME280;3673;52.480;13.348;2023-04-06T01:56:03;101646.19;;;9.31;44.75
7264;BME280;3673;52.480;13.348;2023-04-06T01:58:32;101640.22;;;9.38;44.55
7264;BME280;3673;52.480;13.348;2023-04-06T02:00:59;101652.41;;;9.38;44.59
7264;BME280;3673;52.480;13.348;2023-04-06T02:03:26;101641.78;;;9.28;45.08
7264;BME280;3673;52.480;13.348;2023-04-06T02:05:52;101642.84;;;9.38;44.98
7264;BME280;3673;52.480;13.348;2023-04-06T02:08:19;101647.13;;;9.35;44.48
7264;BME280;3673;52.480;13.348;2023-04-06T02:10:46;101640.22;;;9.38;44.44
7264;BME280;3673;52.480;13.348;2023-04-06T02:13:13;101646.13;;;9.26;44.75
7264;BME280;3673;52.480;13.348;2023-04-06T02:15:41;101642.63;;;9.27;44.69
7264;BME280;3673;52.480;13.348;2023-04-06T02:18:08;101646.13;;;9.28;44.87
7264;BME280;3673;52.480;13.348;2023-04-06T02:20:35;101646.59;;;9.07;45.22
7264;BME280;3673;52.480;13.348;2023-04-06T02:23:02;101652.91;;;9.17;45.18
7264;BME280;3673;52.480;13.348;2023-04-06T02:25:29;101653.06;;;9.27;44.88
7264;BME280;3673;52.480;13.348;2023-04-06T02:27:56;101650.50;;;9.29;44.99
7264;BME280;3673;52.480;13.348;2023-04-06T02:30:22;101652.94;;;9.20;44.92
7264;BME280;3673;52.480;13.348;2023-04-06T02:32:50;101656.31;;;9.14;45.30
7264;BME280;3673;52.480;13.348;2023-04-06T02:35:17;101658.16;;;9.20;44.96
7264;BME280;3673;52.480;13.348;2023-04-06T02:37:44;101651.78;;;9.06;45.11
7264;BME280;3673;52.480;13.348;2023-04-06T02:40:11;101655.91;;;8.93;45.10
7264;BME280;3673;52.480;13.348;2023-04-06T02:42:38;101650.56;;;8.89;45.13
7264;BME280;3673;52.480;13.348;2023-04-06T02:45:06;101653.16;;;8.87;45.81
7264;BME280;3673;52.480;13.348;2023-04-06T02:47:33;101651.41;;;8.86;45.18
7264;BME280;3673;52.480;13.348;2023-04-06T02:50:02;101649.81;;;8.94;45.07
7264;BME280;3673;52.480;13.348;2023-04-06T02:52:29;101652.28;;;8.88;44.93
7264;BME280;3673;52.480;13.348;2023-04-06T02:54:56;101655.25;;;8.64;45.23
7264;BME280;3673;52.480;13.348;2023-04-06T02:57:22;101648.38;;;8.66;45.65
7264;BME280;3673;52.480;13.348;2023-04-06T02:59:49;101646.59;;;8.64;45.92
7264;BME280;3673;52.480;13.348;2023-04-06T03:02:16;101658.59;;;8.20;46.48
7264;BME280;3673;52.480;13.348;2023-04-06T03:04:45;101645.97;;;8.37;46.52
7264;BME280;3673;52.480;13.348;2023-04-06T03:07:13;101649.56;;;8.06;46.79
7264;BME280;3673;52.480;13.348;2023-04-06T03:09:40;101654.16;;;7.80;47.50
7264;BME280;3673;52.480;13.348;2023-04-06T03:12:06;101657.63;;;8.16;46.84
7264;BME280;3673;52.480;13.348;2023-04-06T03:14:33;101657.03;;;7.92;47.32
7264;BME280;3673;52.480;13.348;2023-04-06T03:17:00;101660.38;;;8.22;47.14
7264;BME280;3673;52.480;13.348;2023-04-06T03:19:27;101659.72;;;7.95;47.01
7264;BME280;3673;52.480;13.348;2023-04-06T03:21:54;101663.69;;;7.80;47.50
7264;BME280;3673;52.480;13.348;2023-04-06T03:24:22;101660.38;;;7.87;47.54
7264;BME280;3673;52.480;13.348;2023-04-06T03:26:49;101658.41;;;7.78;47.74
7264;BME280;3673;52.480;13.348;2023-04-06T03:29:16;101661.69;;;7.69;47.96
7264;BME280;3673;52.480;13.348;2023-04-06T03:31:43;101664.84;;;7.58;48.52
7264;BME280;3673;52.480;13.348;2023-04-06T03:34:10;101662.03;;;7.83;47.85
7264;BME280;3673;52.480;13.348;2023-04-06T03:36:37;101668.16;;;7.85;47.92
7264;BME280;3673;52.480;13.348;2023-04-06T03:39:04;101672.63;;;7.91;47.85
7264;BME280;3673;52.480;13.348;2023-04-06T03:41:32;101668.69;;;8.06;47.79
7264;BME280;3673;52.480;13.348;2023-04-06T03:43:59;101674.69;;;8.38;47.35
7264;BME280;3673;52.480;13.348;2023-04-06T03:46:26;101678.16;;;8.37;47.16
7264;BME280;3673;52.480;13.348;2023-04-06T03:48:52;101676.19;;;8.28;47.09
7264;BME280;3673;52.480;13.348;2023-04-06T03:51:19;101690.38;;;8.05;47.45
7264;BME280;3673;52.480;13.348;2023-04-06T03:53:46;101683.75;;;7.84;48.02
7264;BME280;3673;52.480;13.348;2023-04-06T03:56:13;101692.91;;;8.02;47.68
7264;BME280;3673;52.480;13.348;2023-04-06T03:58:41;101683.44;;;7.71;48.17
7264;BME280;3673;52.480;13.348;2023-04-06T04:01:10;101683.34;;;7.67;48.76
7264;BME280;3673;52.480;13.348;2023-04-06T04:03:36;101693.94;;;7.74;48.44
7264;BME280;3673;52.480;13.348;2023-04-06T04:06:03;101690.44;;;7.41;49.53
7264;BME280;3673;52.480;13.348;2023-04-06T04:08:31;101690.72;;;7.85;48.48
7264;BME280;3673;52.480;13.348;2023-04-06T04:10:58;101688.16;;;7.86;47.95
7264;BME280;3673;52.480;13.348;2023-04-06T04:13:24;101693.38;;;7.88;48.04
7264;BME280;3673;52.480;13.348;2023-04-06T04:15:53;101708.59;;;8.04;47.82
7264;BME280;3673;52.480;13.348;2023-04-06T04:18:19;101693.56;;;8.28;47.79
7264;BME280;3673;52.480;13.348;2023-04-06T04:20:46;101698.06;;;8.01;47.51
7264;BME280;3673;52.480;13.348;2023-04-06T04:23:13;101696.59;;;7.76;48.15
7264;BME280;3673;52.480;13.348;2023-04-06T04:25:40;101695.25;;;7.92;47.39
7264;BME280;3673;52.480;13.348;2023-04-06T04:28:07;101704.69;;;7.88;47.74
7264;BME280;3673;52.480;13.348;2023-04-06T04:30:34;101704.41;;;7.77;48.46
7264;BME280;3673;52.480;13.348;2023-04-06T04:33:02;101691.75;;;7.57;48.44
7264;BME280;3673;52.480;13.348;2023-04-06T04:35:29;101696.59;;;7.77;48.14
7264;BME280;3673;52.480;13.348;2023-04-06T04:37:56;101703.31;;;7.68;48.62
7264;BME280;3673;52.480;13.348;2023-04-06T04:40:23;101704.75;;;7.57;48.76
7264;BME280;3673;52.480;13.348;2023-04-06T04:42:50;101706.78;;;7.67;48.36
7264;BME280;3673;52.480;13.348;2023-04-06T04:45:17;101706.41;;;7.53;48.76
7264;BME280;3673;52.480;13.348;2023-04-06T04:47:44;101699.66;;;7.61;48.95
7264;BME280;3673;52.480;13.348;2023-04-06T04:50:12;101709.69;;;7.46;49.06
7264;BME280;3673;52.480;13.348;2023-04-06T04:52:39;101705.53;;;7.54;48.89
7264;BME280;3673;52.480;13.348;2023-04-06T04:55:07;101707.59;;;7.66;48.58
7264;BME280;3673;52.480;13.348;2023-04-06T04:57:34;101710.50;;;7.45;49.18
7264;BME280;3673;52.480;13.348;2023-04-06T05:00:01;101711.59;;;7.53;49.30
7264;BME280;3673;52.480;13.348;2023-04-06T05:02:28;101720.91;;;7.44;49.43
7264;BME280;3673;52.480;13.348;2023-04-06T05:04:55;101719.50;;;7.56;49.01
7264;BME280;3673;52.480;13.348;2023-04-06T05:07:23;101709.44;;;7.70;48.83
7264;BME280;3673;52.480;13.348;2023-04-06T05:09:50;101703.75;;;7.85;48.60
7264;BME280;3673;52.480;13.348;2023-04-06T05:12:17;101720.50;;;7.61;48.93
7264;BME280;3673;52.480;13.348;2023-04-06T05:14:45;101710.59;;;7.81;48.29
7264;BME280;3673;52.480;13.348;2023-04-06T05:17:12;101713.38;;;7.87;48.29
7264;BME280;3673;52.480;13.348;2023-04-06T05:19:39;101710.66;;;7.84;48.27
7264;BME280;3673;52.480;13.348;2023-04-06T05:22:05;101708.75;;;8.10;47.92
7264;BME280;3673;52.480;13.348;2023-04-06T05:24:34;101720.91;;;7.76;48.74
7264;BME280;3673;52.480;13.348;2023-04-06T05:27:01;101704.63;;;7.85;48.66
7264;BME280;3673;52.480;13.348;2023-04-06T05:29:28;101708.13;;;8.21;47.87
7264;BME280;3673;52.480;13.348;2023-04-06T05:31:55;101722.53;;;8.06;48.10
7264;BME280;3673;52.480;13.348;2023-04-06T05:34:22;101725.06;;;8.03;48.37
7264;BME280;3673;52.480;13.348;2023-04-06T05:36:49;101725.88;;;8.00;48.57
7264;BME280;3673;52.480;13.348;2023-04-06T05:39:16;101719.06;;;8.41;47.75
7264;BME280;3673;52.480;13.348;2023-04-06T05:41:44;101724.72;;;8.59;47.47
7264;BME280;3673;52.480;13.348;2023-04-06T05:44:11;101729.25;;;8.68;47.10
7264;BME280;3673;52.480;13.348;2023-04-06T05:46:38;101725.09;;;8.76;46.83
7264;BME280;3673;52.480;13.348;2023-04-06T05:49:05;101724.16;;;8.74;47.21
7264;BME280;3673;52.480;13.348;2023-04-06T05:51:32;101720.84;;;8.79;46.97
7264;BME280;3673;52.480;13.348;2023-04-06T05:53:59;101723.63;;;8.87;46.95
7264;BME280;3673;52.480;13.348;2023-04-06T05:56:26;101717.59;;;8.91;46.58
7264;BME280;3673;52.480;13.348;2023-04-06T05:58:54;101726.53;;;9.02;46.19
7264;BME280;3673;52.480;13.348;2023-04-06T06:01:21;101723.97;;;9.04;46.20
7264;BME280;3673;52.480;13.348;2023-04-06T06:03:47;101724.84;;;9.04;46.22
7264;BME280;3673;52.480;13.348;2023-04-06T06:06:14;101723.09;;;9.05;46.00
7264;BME280;3673;52.480;13.348;2023-04-06T06:08:41;101727.72;;;9.16;46.14
7264;BME280;3673;52.480;13.348;2023-04-06T06:11:08;101733.16;;;9.27;45.42
7264;BME280;3673;52.480;13.348;2023-04-06T06:13:35;101730.28;;;9.15;45.48
7264;BME280;3673;52.480;13.348;2023-04-06T06:16:04;101731.56;;;9.35;45.43
7264;BME280;3673;52.480;13.348;2023-04-06T06:18:31;101734.41;;;9.46;45.42
7264;BME280;3673;52.480;13.348;2023-04-06T06:20:58;101734.34;;;9.43;44.87
7264;BME280;3673;52.480;13.348;2023-04-06T06:23:25;101735.63;;;9.64;44.38
7264;BME280;3673;52.480;13.348;2023-04-06T06:25:52;101736.72;;;9.30;44.97
7264;BME280;3673;52.480;13.348;2023-04-06T06:28:19;101730.78;;;9.39;44.46
7264;BME280;3673;52.480;13.348;2023-04-06T06:30:46;101736.50;;;9.63;44.21
7264;BME280;3673;52.480;13.348;2023-04-06T06:33:14;101734.19;;;9.81;43.75
7264;BME280;3673;52.480;13.348;2023-04-06T06:35:41;101730.59;;;9.75;43.90
7264;BME280;3673;52.480;13.348;2023-04-06T06:38:08;101734.03;;;9.72;43.85
7264;BME280;3673;52.480;13.348;2023-04-06T06:40:35;101732.88;;;10.05;43.77
7264;BME280;3673;52.480;13.348;2023-04-06T06:43:02;101738.09;;;10.03;43.59
7264;BME280;3673;52.480;13.348;2023-04-06T06:45:29;101734.72;;;10.10;43.52
7264;BME280;3673;52.480;13.348;2023-04-06T06:47:56;101733.41;;;10.33;42.85
7264;BME280;3673;52.480;13.348;2023-04-06T06:50:24;101739.19;;;10.16;42.85
7264;BME280;3673;52.480;13.348;2023-04-06T06:52:51;101729.66;;;10.19;43.15
7264;BME280;3673;52.480;13.348;2023-04-06T06:55:18;101732.59;;;10.39;42.47
7264;BME280;3673;52.480;13.348;2023-04-06T06:57:45;101733.72;;;10.55;41.72
7264;BME280;3673;52.480;13.348;2023-04-06T07:00:13;101737.56;;;10.81;41.37
7264;BME280;3673;52.480;13.348;2023-04-06T07:02:41;101743.69;;;10.81;41.45
7264;BME280;3673;52.480;13.348;2023-04-06T07:05:08;101740.47;;;10.99;40.94
7264;BME280;3673;52.480;13.348;2023-04-06T07:07:37;101735.16;;;10.95;40.53
7264;BME280;3673;52.480;13.348;2023-04-06T07:10:05;101732.66;;;11.01;40.25
7264;BME280;3673;52.480;13.348;2023-04-06T07:12:32;101736.84;;;10.91;40.26
7264;BME280;3673;52.480;13.348;2023-04-06T07:14:59;101733.50;;;11.00;39.58
7264;BME280;3673;52.480;13.348;2023-04-06T07:17:26;101739.84;;;11.17;39.32
7264;BME280;3673;52.480;13.348;2023-04-06T07:19:52;101738.00;;;11.10;39.48
7264;BME280;3673;52.480;13.348;2023-04-06T07:22:19;101739.75;;;11.12;39.16
7264;BME280;3673;52.480;13.348;2023-04-06T07:24:47;101736.34;;;11.16;39.08
7264;BME280;3673;52.480;13.348;2023-04-06T07:27:14;101740.09;;;11.40;38.48
7264;BME280;3673;52.480;13.348;2023-04-06T07:29:41;101737.66;;;11.53;38.57
7264;BME280;3673;52.480;13.348;2023-04-06T07:32:08;101741.44;;;11.79;37.93
7264;BME280;3673;52.480;13.348;2023-04-06T07:34:35;101733.59;;;11.81;37.46
7264;BME280;3673;52.480;13.348;2023-04-06T07:37:02;101722.16;;;11.74;37.42
7264;BME280;3673;52.480;13.348;2023-04-06T07:39:29;101727.66;;;12.02;37.06
7264;BME280;3673;52.480;13.348;2023-04-06T07:41:57;101732.84;;;11.93;36.66
7264;BME280;3673;52.480;13.348;2023-04-06T07:44:24;101734.59;;;11.91;36.46
7264;BME280;3673;52.480;13.348;2023-04-06T07:46:51;101724.22;;;12.06;36.36
7264;BME280;3673;52.480;13.348;2023-04-06T07:49:18;101720.16;;;12.44;35.93
7264;BME280;3673;52.480;13.348;2023-04-06T07:51:46;101719.22;;;12.36;36.25
7264;BME280;3673;52.480;13.348;2023-04-06T07:54:13;101731.59;;;12.51;35.78
7264;BME280;3673;52.480;13.348;2023-04-06T07:56:40;101733.47;;;12.70;35.35
7264;BME280;3673;52.480;13.348;2023-04-06T07:59:08;101725.53;;;12.65;35.26
7264;BME280;3673;52.480;13.348;2023-04-06T08:01:37;101730.06;;;12.87;34.50
7264;BME280;3673;52.480;13.348;2023-04-06T08:04:03;101730.97;;;12.96;34.29
7264;BME280;3673;52.480;13.348;2023-04-06T08:06:30;101725.56;;;12.71;34.48
7264;BME280;3673;52.480;13.348;2023-04-06T08:08:57;101729.09;;;12.73;34.82
7264;BME280;3673;52.480;13.348;2023-04-06T08:11:24;101724.06;;;13.11;34.22
7264;BME280;3673;52.480;13.348;2023-04-06T08:13:52;101727.28;;;12.60;34.76
7264;BME280;3673;52.480;13.348;2023-04-06T08:16:20;101735.16;;;12.68;34.20
7264;BME280;3673;52.480;13.348;2023-04-06T08:18:47;101728.50;;;13.17;33.39
7264;BME280;3673;52.480;13.348;2023-04-06T08:21:14;101728.38;;;13.00;33.50
7264;BME280;3673;52.480;13.348;2023-04-06T08:23:41;101725.75;;;13.05;33.78
7264;BME280;3673;52.480;13.348;2023-04-06T08:26:08;101728.56;;;13.41;32.70
7264;BME280;3673;52.480;13.348;2023-04-06T08:28:35;101737.91;;;12.80;33.48
7264;BME280;3673;52.480;13.348;2023-04-06T08:31:04;101732.91;;;13.21;33.20
7264;BME280;3673;52.480;13.348;2023-04-06T08:33:33;101731.13;;;13.24;32.42
7264;BME280;3673;52.480;13.348;2023-04-06T08:36:08;101729.41;;;13.29;32.35
7264;BME280;3673;52.480;13.348;2023-04-06T08:38:35;101719.00;;;13.64;31.63
7264;BME280;3673;52.480;13.348;2023-04-06T08:41:08;101724.28;;;13.82;30.70
7264;BME280;3673;52.480;13.348;2023-04-06T08:43:42;101721.69;;;13.96;29.64
7264;BME280;3673;52.480;13.348;2023-04-06T08:46:10;101729.53;;;13.72;30.09
7264;BME280;3673;52.480;13.348;2023-04-06T08:48:41;101727.81;;;13.95;29.63
7264;BME280;3673;52.480;13.348;2023-04-06T08:51:09;101717.31;;;14.10;29.10
7264;BME280;3673;52.480;13.348;2023-04-06T08:53:37;101729.50;;;13.66;28.58
7264;BME280;3673;52.480;13.348;2023-04-06T08:56:05;101716.41;;;13.88;28.47
7264;BME280;3673;52.480;13.348;2023-04-06T08:58:35;101715.53;;;14.32;28.04
7264;BME280;3673;52.480;13.348;2023-04-06T09:01:07;101712.03;;;14.25;28.04
7264;BME280;3673;52.480;13.348;2023-04-06T09:03:39;101719.97;;;14.47;27.12
7264;BME280;3673;52.480;13.348;2023-04-06T09:06:07;101722.56;;;14.28;27.40
7264;BME280;3673;52.480;13.348;2023-04-06T09:08:35;101723.44;;;14.29;27.65
7264;BME280;3673;52.480;13.348;2023-04-06T09:11:03;101726.06;;;14.68;27.57
7264;BME280;3673;52.480;13.348;2023-04-06T09:13:30;101729.59;;;14.57;27.47
7264;BME280;3673;52.480;13.348;2023-04-06T09:16:01;101723.41;;;14.68;27.33
7264;BME280;3673;52.480;13.348;2023-04-06T09:18:30;101719.06;;;14.44;27.46
7264;BME280;3673;52.480;13.348;2023-04-06T09:21:00;101713.75;;;14.75;26.78
7264;BME280;3673;52.480;13.348;2023-04-06T09:23:28;101714.38;;;15.42;26.45
7264;BME280;3673;52.480;13.348;2023-04-06T09:26:07;101715.31;;;15.30;26.42
7264;BME280;3673;52.480;13.348;2023-04-06T09:28:44;101708.41;;;15.02;26.00
7264;BME280;3673;52.480;13.348;2023-04-06T09:31:13;101707.56;;;14.94;26.35
7264;BME280;3673;52.480;13.348;2023-04-06T09:33:44;101703.66;;;15.72;26.15
7264;BME280;3673;52.480;13.348;2023-04-06T09:36:13;101692.91;;;16.00;25.62
7264;BME280;3673;52.480;13.348;2023-04-06T09:38:53;101702.41;;;16.22;25.11
7264;BME280;3673;52.480;13.348;2023-04-06T09:41:23;101687.94;;;16.65;25.05
7264;BME280;3673;52.480;13.348;2023-04-06T09:43:50;101691.13;;;16.94;24.18
7264;BME280;3673;52.480;13.348;2023-04-06T09:46:18;101680.03;;;16.62;23.93
7264;BME280;3673;52.480;13.348;2023-04-06T09:48:47;101699.41;;;17.37;23.82
7264;BME280;3673;52.480;13.348;2023-04-06T09:51:18;101690.28;;;17.61;23.13
7264;BME280;3673;52.480;13.348;2023-04-06T09:53:52;101688.97;;;17.25;22.53
7264;BME280;3673;52.480;13.348;2023-04-06T09:56:24;101680.31;;;17.14;22.54
7264;BME280;3673;52.480;13.348;2023-04-06T09:59:01;101670.13;;;18.06;22.16
7264;BME280;3673;52.480;13.348;2023-04-06T10:01:30;101677.38;;;17.96;21.48
7264;BME280;3673;52.480;13.348;2023-04-06T10:04:09;101675.88;;;18.78;20.58
7264;BME280;3673;52.480;13.348;2023-04-06T10:06:41;101673.34;;;19.17;21.88
7264;BME280;3673;52.480;13.348;2023-04-06T10:09:08;101671.78;;;18.62;20.25
7264;BME280;3673;52.480;13.348;2023-04-06T10:11:36;101672.34;;;17.80;21.45
7264;BME280;3673;52.480;13.348;2023-04-06T10:14:04;101664.88;;;17.45;21.83
7264;BME280;3673;52.480;13.348;2023-04-06T10:16:32;101673.31;;;18.28;22.19
7264;BME280;3673;52.480;13.348;2023-04-06T10:19:06;101676.44;;;18.51;21.42
7264;BME280;3673;52.480;13.348;2023-04-06T10:21:37;101669.94;;;19.10;20.22
7264;BME280;3673;52.480;13.348;2023-04-06T10:24:09;101673.38;;;19.55;20.62
7264;BME280;3673;52.480;13.348;2023-04-06T10:26:38;101670.94;;;19.46;21.11
7264;BME280;3673;52.480;13.348;2023-04-06T10:29:05;101672.09;;;18.91;20.14
7264;BME280;3673;52.480;13.348;2023-04-06T10:31:32;101665.59;;;18.14;20.05
7264;BME280;3673;52.480;13.348;2023-04-06T10:34:02;101671.06;;;18.04;20.40
7264;BME280;3673;52.480;13.348;2023-04-06T10:36:33;101668.28;;;17.56;21.71
7264;BME280;3673;52.480;13.348;2023-04-06T10:39:03;101673.25;;;17.77;21.71
7264;BME280;3673;52.480;13.348;2023-04-06T10:41:36;101674.72;;;17.35;22.21
7264;BME280;3673;52.480;13.348;2023-04-06T10:44:07;101679.41;;;17.79;21.28
7264;BME280;3673;52.480;13.348;2023-04-06T10:46:34;101663.63;;;17.11;21.76
7264;BME280;3673;52.480;13.348;2023-04-06T10:49:11;101669.03;;;17.00;22.54
7264;BME280;3673;52.480;13.348;2023-04-06T10:51:39;101662.88;;;16.99;22.17
7264;BME280;3673;52.480;13.348;2023-04-06T10:54:06;101662.09;;;16.90;21.47
7264;BME280;3673;52.480;13.348;2023-04-06T10:56:37;101651.03;;;16.52;21.88
7264;BME280;3673;52.480;13.348;2023-04-06T10:59:06;101648.91;;;18.09;20.76
7264;BME280;3673;52.480;13.348;2023-04-06T11:01:33;101649.41;;;18.31;19.99
7264;BME280;3673;52.480;13.348;2023-04-06T11:04:01;101652.19;;;19.12;19.26
7264;BME280;3673;52.480;13.348;2023-04-06T11:06:30;101648.16;;;19.74;18.99
7264;BME280;3673;52.480;13.348;2023-04-06T11:08:59;101656.94;;;19.78;18.50
7264;BME280;3673;52.480;13.348;2023-04-06T11:11:26;101639.41;;;20.40;18.12
7264;BME280;3673;52.480;13.348;2023-04-06T11:13:56;101642.38;;;21.22;17.53
7264;BME280;3673;52.480;13.348;2023-04-06T11:16:25;101646.09;;;20.54;17.79
7264;BME280;3673;52.480;13.348;2023-04-06T11:18:54;101651.50;;;18.61;18.94
7264;BME280;3673;52.480;13.348;2023-04-06T11:21:33;101644.00;;;17.85;20.37
7264;BME280;3673;52.480;13.348;2023-04-06T11:24:12;101625.66;;;17.74;20.02
7264;BME280;3673;52.480;13.348;2023-04-06T11:26:42;101630.78;;;18.34;19.56
7264;BME280;3673;52.480;13.348;2023-04-06T11:29:12;101631.19;;;19.81;18.37
7264;BME280;3673;52.480;13.348;2023-04-06T11:31:41;101620.19;;;20.30;17.30
7264;BME280;3673;52.480;13.348;2023-04-06T11:34:12;101628.81;;;20.71;17.20
7264;BME280;3673;52.480;13.348;2023-04-06T11:36:44;101614.91;;;20.29;17.31
7264;BME280;3673;52.480;13.348;2023-04-06T11:39:12;101633.31;;;19.66;17.94
7264;BME280;3673;52.480;13.348;2023-04-06T11:41:39;101616.09;;;19.45;18.39
7264;BME280;3673;52.480;13.348;2023-04-06T11:44:06;101612.16;;;19.98;17.77
7264;BME280;3673;52.480;13.348;2023-04-06T11:46:35;101614.28;;;19.84;17.73
7264;BME280;3673;52.480;13.348;2023-04-06T11:49:02;101598.94;;;20.61;17.61
7264;BME280;3673;52.480;13.348;2023-04-06T11:51:29;101609.56;;;21.49;17.00
7264;BME280;3673;52.480;13.348;2023-04-06T11:53:56;101613.75;;;21.58;16.50
7264;BME280;3673;52.480;13.348;2023-04-06T11:56:25;101612.13;;;22.06;15.98
7264;BME280;3673;52.480;13.348;2023-04-06T11:58:54;101606.81;;;21.24;15.77
7264;BME280;3673;52.480;13.348;2023-04-06T12:01:22;101605.19;;;20.26;16.81
7264;BME280;3673;52.480;13.348;2023-04-06T12:03:51;101600.31;;;19.76;17.39
7264;BME280;3673;52.480;13.348;2023-04-06T12:06:19;101599.97;;;19.54;17.50
7264;BME280;3673;52.480;13.348;2023-04-06T12:08:45;101595.88;;;20.44;16.80
7264;BME280;3673;52.480;13.348;2023-04-06T12:11:12;101595.41;;;20.90;16.82
7264;BME280;3673;52.480;13.348;2023-04-06T12:13:39;101605.34;;;21.70;15.76
7264;BME280;3673;52.480;13.348;2023-04-06T12:16:06;101611.22;;;22.07;15.49
7264;BME280;3673;52.480;13.348;2023-04-06T12:18:33;101599.06;;;22.73;15.11
7264;BME280;3673;52.480;13.348;2023-04-06T12:21:02;101598.75;;;21.81;15.81
7264;BME280;3673;52.480;13.348;2023-04-06T12:23:29;101587.91;;;21.86;15.98
7264;BME280;3673;52.480;13.348;2023-04-06T12:25:56;101590.53;;;21.87;15.74
7264;BME280;3673;52.480;13.348;2023-04-06T12:28:23;101592.69;;;22.52;15.26
7264;BME280;3673;52.480;13.348;2023-04-06T12:30:52;101580.66;;;21.65;15.90
7264;BME280;3673;52.480;13.348;2023-04-06T12:33:20;101581.13;;;22.76;15.22
7264;BME280;3673;52.480;13.348;2023-04-06T12:35:47;101579.38;;;22.75;15.03
7264;BME280;3673;52.480;13.348;2023-04-06T12:38:15;101587.03;;;22.36;15.13
7264;BME280;3673;52.480;13.348;2023-04-06T12:40:42;101571.06;;;22.84;14.61
7264;BME280;3673;52.480;13.348;2023-04-06T12:43:09;101582.00;;;23.00;14.59
7264;BME280;3673;52.480;13.348;2023-04-06T12:45:36;101590.53;;;22.38;14.86
7264;BME280;3673;52.480;13.348;2023-04-06T12:48:03;101584.06;;;21.14;15.71
7264;BME280;3673;52.480;13.348;2023-04-06T12:50:30;101574.78;;;21.81;15.45
7264;BME280;3673;52.480;13.348;2023-04-06T12:52:57;101564.97;;;22.08;15.57
7264;BME280;3673;52.480;13.348;2023-04-06T12:55:25;101565.34;;;23.38;14.59
7264;BME280;3673;52.480;13.348;2023-04-06T12:57:56;101561.06;;;23.98;14.40
7264;BME280;3673;52.480;13.348;2023-04-06T13:00:23;101565.78;;;23.28;14.77
7264;BME280;3673;52.480;13.348;2023-04-06T13:02:51;101564.97;;;22.56;14.78
7264;BME280;3673;52.480;13.348;2023-04-06T13:05:18;101557.09;;;22.99;14.76
7264;BME280;3673;52.480;13.348;2023-04-06T13:07:45;101558.59;;;22.85;14.91